Capitan Miranda — CWBE — position and weather

sailwx.info

Track history (hours):
 
Tides and Currents Weather Stations Pressure Air Temp Water Temp Dewpoint Dewpoint Depression Visibility Wind Speed Wind Dir Waves Ship Positions

Capitan Miranda (Uruguay)

Staysail schooner. Training ship for Uruguayan Navy.

Last reported at 2019-Jun-11 14:48 UTC. Time now 2019-Jun-16 00:35 UTC.
Position S 03°42' W 038°29'.

; draft 3.4 m.

Type: Ship. MMSI: 770576100.

Date/timePositionNaut miles runAvg speedWind from/ knotsBaromVisibWave heightAir tempDewpointWater temp
2019-Jun-11 14:48S 03°42' W 038°29'2 7.1
2019-Jun-11 14:30S 03°40' W 038°30'3 5.7
2019-Jun-11 14:00S 03°38' W 038°32'3 3.9
2019-Jun-11 13:09S 03°40' W 038°29'1 2.7
2019-Jun-11 12:54S 03°39' W 038°29'1 3.4
2019-Jun-11 12:30S 03°38' W 038°30'  
2019-Jun-04 16:15S 23°06' W 042°51'310.5
2019-Jun-04 15:59S 23°06' W 042°54'5 9.9
2019-Jun-04 15:29S 23°05' W 042°59'5 9.3
2019-Jun-04 15:00S 23°03' W 043°03'3 6.5
2019-Jun-04 14:30S 23°00' W 043°06'3 6.9
2019-Jun-04 14:00S 22°58' W 043°08'3 5.7
2019-Jun-04 13:30S 22°55' W 043°09'2 4.7
2019-Jun-04 13:00S 22°54' W 043°11'0 0.0
2019-Jun-04 12:30S 22°54' W 043°11'0 0.0
2019-Jun-04 12:00S 22°54' W 043°11'0 0.0
2019-Jun-04 11:30S 22°54' W 043°11'0 0.0
2019-Jun-04 11:00S 22°54' W 043°11'  
Track history (hours):
 
Tides and Currents Weather Stations Pressure Air Temp Water Temp Dewpoint Dewpoint Depression Visibility Wind Speed Wind Dir Waves Ship Positions

Capitan Miranda (Uruguay)

Staysail schooner. Training ship for Uruguayan Navy.

Last reported at 2019-Jun-11 14:48 UTC. Time now 2019-Jun-16 00:35 UTC.
Position S 03°42' W 038°29'.

; draft 3.4 m.

Type: Ship. MMSI: 770576100.

Date/timePositionNaut miles runAvg speedWind from/ knotsBaromVisibWave heightAir tempDewpointWater temp
2019-Jun-11 14:48S 03°42' W 038°29'2 7.1
2019-Jun-11 14:30S 03°40' W 038°30'3 5.7
2019-Jun-11 14:00S 03°38' W 038°32'3 3.9
2019-Jun-11 13:09S 03°40' W 038°29'1 2.7
2019-Jun-11 12:54S 03°39' W 038°29'1 3.4
2019-Jun-11 12:30S 03°38' W 038°30'  
2019-Jun-04 16:15S 23°06' W 042°51'310.5
2019-Jun-04 15:59S 23°06' W 042°54'5 9.9
2019-Jun-04 15:29S 23°05' W 042°59'5 9.3
2019-Jun-04 15:00S 23°03' W 043°03'3 6.5
2019-Jun-04 14:30S 23°00' W 043°06'3 6.9
2019-Jun-04 14:00S 22°58' W 043°08'3 5.7
2019-Jun-04 13:30S 22°55' W 043°09'2 4.7
2019-Jun-04 13:00S 22°54' W 043°11'0 0.0
2019-Jun-04 12:30S 22°54' W 043°11'0 0.0
2019-Jun-04 12:00S 22°54' W 043°11'0 0.0
2019-Jun-04 11:30S 22°54' W 043°11'0 0.0
2019-Jun-04 11:00S 22°54' W 043°11'  

Dump ship's entire track history